sensor_id;sensor_type;location;lat;lon;timestamp;P1;durP1;ratioP1;P2;durP2;ratioP2
18720;SDS011;9489;50.948;3.114;2023-05-16T00:02:09;10.38;;;3.20;;
18720;SDS011;9489;50.948;3.114;2023-05-16T00:04:35;13.20;;;3.20;;
18720;SDS011;9489;50.948;3.114;2023-05-16T00:07:00;14.07;;;3.80;;
18720;SDS011;9489;50.948;3.114;2023-05-16T00:09:26;10.85;;;3.38;;
18720;SDS011;9489;50.948;3.114;2023-05-16T00:11:52;12.40;;;2.85;;
18720;SDS011;9489;50.948;3.114;2023-05-16T00:14:18;12.32;;;3.42;;
18720;SDS011;9489;50.948;3.114;2023-05-16T00:16:44;11.60;;;3.28;;
18720;SDS011;9489;50.948;3.114;2023-05-16T00:19:09;12.43;;;3.63;;
18720;SDS011;9489;50.948;3.114;2023-05-16T00:21:35;10.38;;;3.05;;
18720;SDS011;9489;50.948;3.114;2023-05-16T00:24:01;12.07;;;3.40;;
18720;SDS011;9489;50.948;3.114;2023-05-16T00:26:28;13.50;;;3.35;;
18720;SDS011;9489;50.948;3.114;2023-05-16T00:28:53;14.85;;;3.22;;
18720;SDS011;9489;50.948;3.114;2023-05-16T00:31:19;8.00;;;2.35;;
18720;SDS011;9489;50.948;3.114;2023-05-16T00:33:44;6.50;;;2.85;;
18720;SDS011;9489;50.948;3.114;2023-05-16T00:36:10;12.13;;;3.10;;
18720;SDS011;9489;50.948;3.114;2023-05-16T00:38:36;15.82;;;3.83;;
18720;SDS011;9489;50.948;3.114;2023-05-16T00:41:02;14.10;;;3.95;;
18720;SDS011;9489;50.948;3.114;2023-05-16T00:43:28;10.82;;;3.17;;
18720;SDS011;9489;50.948;3.114;2023-05-16T00:45:54;17.20;;;3.60;;
18720;SDS011;9489;50.948;3.114;2023-05-16T00:48:21;14.48;;;4.07;;
18720;SDS011;9489;50.948;3.114;2023-05-16T00:50:47;10.93;;;3.40;;
18720;SDS011;9489;50.948;3.114;2023-05-16T00:53:14;10.43;;;3.08;;
18720;SDS011;9489;50.948;3.114;2023-05-16T00:55:40;8.63;;;2.97;;
18720;SDS011;9489;50.948;3.114;2023-05-16T00:58:06;11.77;;;3.97;;
18720;SDS011;9489;50.948;3.114;2023-05-16T01:00:33;10.68;;;3.90;;
18720;SDS011;9489;50.948;3.114;2023-05-16T01:03:00;12.18;;;2.90;;
18720;SDS011;9489;50.948;3.114;2023-05-16T01:05:26;9.43;;;3.70;;
18720;SDS011;9489;50.948;3.114;2023-05-16T01:07:53;13.82;;;3.42;;
18720;SDS011;9489;50.948;3.114;2023-05-16T01:10:18;13.88;;;3.38;;
18720;SDS011;9489;50.948;3.114;2023-05-16T01:15:27;10.02;;;2.88;;
18720;SDS011;9489;50.948;3.114;2023-05-16T01:21:03;11.00;;;3.22;;
18720;SDS011;9489;50.948;3.114;2023-05-16T01:24:08;16.00;;;3.40;;
18720;SDS011;9489;50.948;3.114;2023-05-16T01:26:48;9.65;;;2.97;;
18720;SDS011;9489;50.948;3.114;2023-05-16T01:29:15;10.85;;;2.95;;
18720;SDS011;9489;50.948;3.114;2023-05-16T01:31:41;15.27;;;3.70;;
18720;SDS011;9489;50.948;3.114;2023-05-16T01:34:07;10.45;;;3.28;;
18720;SDS011;9489;50.948;3.114;2023-05-16T01:42:00;13.10;;;3.05;;
18720;SDS011;9489;50.948;3.114;2023-05-16T01:46:58;10.38;;;3.38;;
18720;SDS011;9489;50.948;3.114;2023-05-16T01:49:46;9.93;;;3.22;;
18720;SDS011;9489;50.948;3.114;2023-05-16T01:52:27;13.25;;;4.15;;
18720;SDS011;9489;50.948;3.114;2023-05-16T01:54:59;13.82;;;3.75;;
18720;SDS011;9489;50.948;3.114;2023-05-16T01:57:27;11.57;;;3.53;;
18720;SDS011;9489;50.948;3.114;2023-05-16T01:59:54;8.30;;;3.20;;
18720;SDS011;9489;50.948;3.114;2023-05-16T02:02:22;12.23;;;3.75;;
18720;SDS011;9489;50.948;3.114;2023-05-16T02:04:47;8.13;;;3.08;;
18720;SDS011;9489;50.948;3.114;2023-05-16T02:07:14;10.52;;;3.20;;
18720;SDS011;9489;50.948;3.114;2023-05-16T02:09:40;10.88;;;4.00;;
18720;SDS011;9489;50.948;3.114;2023-05-16T02:12:06;9.77;;;2.70;;
18720;SDS011;9489;50.948;3.114;2023-05-16T02:14:32;9.90;;;3.08;;
18720;SDS011;9489;50.948;3.114;2023-05-16T02:16:58;6.93;;;2.75;;
18720;SDS011;9489;50.948;3.114;2023-05-16T02:19:23;9.05;;;3.47;;
18720;SDS011;9489;50.948;3.114;2023-05-16T02:21:49;8.98;;;3.40;;
18720;SDS011;9489;50.948;3.114;2023-05-16T02:24:15;12.35;;;3.58;;
18720;SDS011;9489;50.948;3.114;2023-05-16T02:26:41;14.88;;;3.63;;
18720;SDS011;9489;50.948;3.114;2023-05-16T02:29:06;12.52;;;3.78;;
18720;SDS011;9489;50.948;3.114;2023-05-16T02:31:32;14.48;;;3.97;;
18720;SDS011;9489;50.948;3.114;2023-05-16T02:34:01;9.52;;;4.18;;
18720;SDS011;9489;50.948;3.114;2023-05-16T02:36:27;11.40;;;3.47;;
18720;SDS011;9489;50.948;3.114;2023-05-16T02:38:52;11.93;;;3.70;;
18720;SDS011;9489;50.948;3.114;2023-05-16T02:41:18;15.35;;;3.90;;
18720;SDS011;9489;50.948;3.114;2023-05-16T02:43:46;8.25;;;3.90;;
18720;SDS011;9489;50.948;3.114;2023-05-16T02:46:25;9.07;;;4.20;;
18720;SDS011;9489;50.948;3.114;2023-05-16T02:48:57;11.98;;;3.35;;
18720;SDS011;9489;50.948;3.114;2023-05-16T02:51:23;14.20;;;4.10;;
18720;SDS011;9489;50.948;3.114;2023-05-16T02:53:51;9.05;;;4.10;;
18720;SDS011;9489;50.948;3.114;2023-05-16T02:56:17;6.22;;;3.70;;
18720;SDS011;9489;50.948;3.114;2023-05-16T02:58:45;9.50;;;3.75;;
18720;SDS011;9489;50.948;3.114;2023-05-16T03:01:12;8.18;;;3.50;;
18720;SDS011;9489;50.948;3.114;2023-05-16T03:03:38;7.75;;;4.22;;
18720;SDS011;9489;50.948;3.114;2023-05-16T03:06:04;6.85;;;3.85;;
18720;SDS011;9489;50.948;3.114;2023-05-16T03:08:30;8.45;;;3.38;;
18720;SDS011;9489;50.948;3.114;2023-05-16T03:10:56;8.60;;;3.95;;
18720;SDS011;9489;50.948;3.114;2023-05-16T03:13:22;9.23;;;3.70;;
18720;SDS011;9489;50.948;3.114;2023-05-16T03:15:47;11.18;;;3.20;;
18720;SDS011;9489;50.948;3.114;2023-05-16T03:18:13;8.82;;;2.97;;
18720;SDS011;9489;50.948;3.114;2023-05-16T03:20:39;12.10;;;3.95;;
18720;SDS011;9489;50.948;3.114;2023-05-16T03:23:05;8.65;;;3.88;;
18720;SDS011;9489;50.948;3.114;2023-05-16T03:25:35;11.65;;;3.70;;
18720;SDS011;9489;50.948;3.114;2023-05-16T03:28:01;11.07;;;3.30;;
18720;SDS011;9489;50.948;3.114;2023-05-16T03:30:31;13.50;;;4.47;;
18720;SDS011;9489;50.948;3.114;2023-05-16T03:32:57;12.02;;;4.28;;
18720;SDS011;9489;50.948;3.114;2023-05-16T03:35:22;8.25;;;4.07;;
18720;SDS011;9489;50.948;3.114;2023-05-16T03:37:48;7.78;;;3.30;;
18720;SDS011;9489;50.948;3.114;2023-05-16T03:40:14;8.98;;;3.88;;
18720;SDS011;9489;50.948;3.114;2023-05-16T03:42:40;11.50;;;3.75;;
18720;SDS011;9489;50.948;3.114;2023-05-16T03:45:06;7.95;;;4.13;;
18720;SDS011;9489;50.948;3.114;2023-05-16T03:47:32;7.30;;;3.40;;
18720;SDS011;9489;50.948;3.114;2023-05-16T03:49:58;7.60;;;3.53;;
18720;SDS011;9489;50.948;3.114;2023-05-16T03:52:24;10.88;;;3.78;;
18720;SDS011;9489;50.948;3.114;2023-05-16T03:54:50;11.30;;;4.28;;
18720;SDS011;9489;50.948;3.114;2023-05-16T03:57:15;10.48;;;3.85;;
18720;SDS011;9489;50.948;3.114;2023-05-16T03:59:41;8.73;;;4.15;;
18720;SDS011;9489;50.948;3.114;2023-05-16T04:02:07;10.80;;;3.97;;
18720;SDS011;9489;50.948;3.114;2023-05-16T04:04:33;10.82;;;4.07;;
18720;SDS011;9489;50.948;3.114;2023-05-16T04:06:59;9.73;;;3.60;;
18720;SDS011;9489;50.948;3.114;2023-05-16T04:09:26;8.95;;;3.60;;
18720;SDS011;9489;50.948;3.114;2023-05-16T04:11:51;7.45;;;3.83;;
18720;SDS011;9489;50.948;3.114;2023-05-16T04:14:17;10.07;;;4.25;;
18720;SDS011;9489;50.948;3.114;2023-05-16T04:16:43;8.63;;;4.30;;
18720;SDS011;9489;50.948;3.114;2023-05-16T04:19:08;7.25;;;3.10;;
18720;SDS011;9489;50.948;3.114;2023-05-16T04:21:34;10.63;;;4.80;;
18720;SDS011;9489;50.948;3.114;2023-05-16T04:24:00;6.68;;;3.35;;
18720;SDS011;9489;50.948;3.114;2023-05-16T04:26:26;9.35;;;4.07;;
18720;SDS011;9489;50.948;3.114;2023-05-16T04:28:52;8.80;;;4.05;;
18720;SDS011;9489;50.948;3.114;2023-05-16T04:31:17;7.20;;;3.92;;
18720;SDS011;9489;50.948;3.114;2023-05-16T04:33:43;8.77;;;3.63;;
18720;SDS011;9489;50.948;3.114;2023-05-16T04:36:10;6.95;;;3.97;;
18720;SDS011;9489;50.948;3.114;2023-05-16T04:38:35;7.60;;;4.18;;
18720;SDS011;9489;50.948;3.114;2023-05-16T04:41:01;13.68;;;4.30;;
18720;SDS011;9489;50.948;3.114;2023-05-16T04:43:28;10.07;;;4.70;;
18720;SDS011;9489;50.948;3.114;2023-05-16T04:45:54;10.05;;;4.30;;
18720;SDS011;9489;50.948;3.114;2023-05-16T04:48:19;8.23;;;3.90;;
18720;SDS011;9489;50.948;3.114;2023-05-16T04:50:45;8.55;;;4.03;;
18720;SDS011;9489;50.948;3.114;2023-05-16T04:53:11;13.02;;;4.32;;
18720;SDS011;9489;50.948;3.114;2023-05-16T04:55:39;10.10;;;4.20;;
18720;SDS011;9489;50.948;3.114;2023-05-16T04:58:04;8.60;;;3.97;;
18720;SDS011;9489;50.948;3.114;2023-05-16T05:00:30;11.75;;;4.05;;
18720;SDS011;9489;50.948;3.114;2023-05-16T05:02:56;11.95;;;4.00;;
18720;SDS011;9489;50.948;3.114;2023-05-16T05:05:22;7.70;;;3.70;;
18720;SDS011;9489;50.948;3.114;2023-05-16T05:07:48;9.65;;;3.80;;
18720;SDS011;9489;50.948;3.114;2023-05-16T05:10:13;13.23;;;3.70;;
18720;SDS011;9489;50.948;3.114;2023-05-16T05:12:39;7.40;;;3.20;;
18720;SDS011;9489;50.948;3.114;2023-05-16T05:15:05;9.50;;;3.33;;
18720;SDS011;9489;50.948;3.114;2023-05-16T05:17:31;13.18;;;3.60;;
18720;SDS011;9489;50.948;3.114;2023-05-16T05:19:57;8.85;;;4.72;;
18720;SDS011;9489;50.948;3.114;2023-05-16T05:22:22;7.80;;;3.30;;
18720;SDS011;9489;50.948;3.114;2023-05-16T05:24:48;13.40;;;4.38;;
18720;SDS011;9489;50.948;3.114;2023-05-16T05:27:14;11.50;;;4.03;;
18720;SDS011;9489;50.948;3.114;2023-05-16T05:29:40;7.63;;;2.90;;
18720;SDS011;9489;50.948;3.114;2023-05-16T05:32:05;9.48;;;3.55;;
18720;SDS011;9489;50.948;3.114;2023-05-16T05:34:32;7.45;;;3.50;;
18720;SDS011;9489;50.948;3.114;2023-05-16T05:36:58;8.65;;;3.00;;
18720;SDS011;9489;50.948;3.114;2023-05-16T05:39:24;8.50;;;3.25;;
18720;SDS011;9489;50.948;3.114;2023-05-16T05:41:50;8.88;;;3.92;;
18720;SDS011;9489;50.948;3.114;2023-05-16T05:44:16;7.65;;;3.25;;
18720;SDS011;9489;50.948;3.114;2023-05-16T05:46:42;10.20;;;3.30;;
18720;SDS011;9489;50.948;3.114;2023-05-16T05:49:08;10.40;;;2.58;;
18720;SDS011;9489;50.948;3.114;2023-05-16T05:51:33;7.30;;;2.65;;
18720;SDS011;9489;50.948;3.114;2023-05-16T05:54:00;8.27;;;2.63;;
18720;SDS011;9489;50.948;3.114;2023-05-16T05:56:26;6.20;;;2.92;;
18720;SDS011;9489;50.948;3.114;2023-05-16T05:58:52;8.20;;;2.75;;
18720;SDS011;9489;50.948;3.114;2023-05-16T06:01:18;9.10;;;3.00;;
18720;SDS011;9489;50.948;3.114;2023-05-16T06:03:45;6.93;;;2.63;;
18720;SDS011;9489;50.948;3.114;2023-05-16T06:06:11;9.95;;;3.72;;
18720;SDS011;9489;50.948;3.114;2023-05-16T06:08:38;9.90;;;2.65;;
18720;SDS011;9489;50.948;3.114;2023-05-16T06:11:04;9.60;;;3.35;;
18720;SDS011;9489;50.948;3.114;2023-05-16T06:13:30;6.38;;;2.47;;
18720;SDS011;9489;50.948;3.114;2023-05-16T06:15:56;13.18;;;3.38;;
18720;SDS011;9489;50.948;3.114;2023-05-16T06:18:22;8.63;;;2.72;;
18720;SDS011;9489;50.948;3.114;2023-05-16T06:20:47;10.63;;;3.10;;
18720;SDS011;9489;50.948;3.114;2023-05-16T06:23:13;13.40;;;3.55;;
18720;SDS011;9489;50.948;3.114;2023-05-16T06:25:39;8.05;;;2.42;;
18720;SDS011;9489;50.948;3.114;2023-05-16T06:28:05;7.32;;;2.38;;
18720;SDS011;9489;50.948;3.114;2023-05-16T06:30:31;9.88;;;2.70;;
18720;SDS011;9489;50.948;3.114;2023-05-16T06:32:56;7.80;;;2.60;;
18720;SDS011;9489;50.948;3.114;2023-05-16T06:35:22;8.15;;;2.50;;
18720;SDS011;9489;50.948;3.114;2023-05-16T06:37:48;9.82;;;2.67;;
18720;SDS011;9489;50.948;3.114;2023-05-16T06:40:13;10.18;;;2.67;;
18720;SDS011;9489;50.948;3.114;2023-05-16T06:42:39;4.05;;;2.00;;
18720;SDS011;9489;50.948;3.114;2023-05-16T06:45:05;9.95;;;2.75;;
18720;SDS011;9489;50.948;3.114;2023-05-16T06:47:31;9.75;;;2.03;;
18720;SDS011;9489;50.948;3.114;2023-05-16T06:49:57;6.47;;;2.13;;
18720;SDS011;9489;50.948;3.114;2023-05-16T06:52:23;5.85;;;1.83;;
18720;SDS011;9489;50.948;3.114;2023-05-16T06:54:49;6.00;;;2.03;;
18720;SDS011;9489;50.948;3.114;2023-05-16T06:57:14;7.70;;;2.08;;
18720;SDS011;9489;50.948;3.114;2023-05-16T06:59:40;6.63;;;2.15;;
18720;SDS011;9489;50.948;3.114;2023-05-16T07:02:06;6.85;;;2.10;;
18720;SDS011;9489;50.948;3.114;2023-05-16T07:04:32;10.27;;;2.30;;
18720;SDS011;9489;50.948;3.114;2023-05-16T07:07:00;7.05;;;1.50;;
18720;SDS011;9489;50.948;3.114;2023-05-16T07:09:26;6.45;;;1.88;;
18720;SDS011;9489;50.948;3.114;2023-05-16T07:11:52;4.40;;;1.70;;
18720;SDS011;9489;50.948;3.114;2023-05-16T07:14:17;6.30;;;1.75;;
18720;SDS011;9489;50.948;3.114;2023-05-16T07:16:43;8.30;;;1.75;;
18720;SDS011;9489;50.948;3.114;2023-05-16T07:19:08;6.35;;;2.10;;
18720;SDS011;9489;50.948;3.114;2023-05-16T07:21:34;4.82;;;1.60;;
18720;SDS011;9489;50.948;3.114;2023-05-16T07:24:00;4.18;;;1.45;;
18720;SDS011;9489;50.948;3.114;2023-05-16T07:26:25;5.45;;;1.48;;
18720;SDS011;9489;50.948;3.114;2023-05-16T07:28:51;4.32;;;1.35;;
18720;SDS011;9489;50.948;3.114;2023-05-16T07:31:17;7.43;;;1.75;;
18720;SDS011;9489;50.948;3.114;2023-05-16T07:33:43;5.68;;;1.67;;
18720;SDS011;9489;50.948;3.114;2023-05-16T07:36:13;6.80;;;1.83;;
18720;SDS011;9489;50.948;3.114;2023-05-16T07:38:38;8.55;;;2.17;;
18720;SDS011;9489;50.948;3.114;2023-05-16T07:41:04;9.52;;;2.33;;
18720;SDS011;9489;50.948;3.114;2023-05-16T07:43:30;7.82;;;2.30;;
18720;SDS011;9489;50.948;3.114;2023-05-16T07:45:59;7.47;;;1.67;;
18720;SDS011;9489;50.948;3.114;2023-05-16T07:48:25;6.85;;;1.92;;
18720;SDS011;9489;50.948;3.114;2023-05-16T07:50:51;6.35;;;1.77;;
18720;SDS011;9489;50.948;3.114;2023-05-16T07:53:17;4.90;;;2.00;;
18720;SDS011;9489;50.948;3.114;2023-05-16T07:55:43;5.72;;;1.95;;
18720;SDS011;9489;50.948;3.114;2023-05-16T07:58:09;4.97;;;1.63;;
18720;SDS011;9489;50.948;3.114;2023-05-16T08:00:35;4.15;;;1.42;;
18720;SDS011;9489;50.948;3.114;2023-05-16T08:03:00;3.97;;;1.38;;
18720;SDS011;9489;50.948;3.114;2023-05-16T08:05:26;4.28;;;1.38;;
18720;SDS011;9489;50.948;3.114;2023-05-16T08:07:52;4.85;;;2.03;;
18720;SDS011;9489;50.948;3.114;2023-05-16T08:10:17;5.55;;;1.60;;
18720;SDS011;9489;50.948;3.114;2023-05-16T08:12:43;4.80;;;1.52;;
18720;SDS011;9489;50.948;3.114;2023-05-16T08:15:09;4.13;;;1.58;;
18720;SDS011;9489;50.948;3.114;2023-05-16T08:17:35;4.32;;;1.42;;
18720;SDS011;9489;50.948;3.114;2023-05-16T08:20:01;4.60;;;1.60;;
18720;SDS011;9489;50.948;3.114;2023-05-16T08:22:27;8.10;;;2.00;;
18720;SDS011;9489;50.948;3.114;2023-05-16T08:24:52;5.15;;;1.88;;
18720;SDS011;9489;50.948;3.114;2023-05-16T08:27:21;3.70;;;1.40;;
18720;SDS011;9489;50.948;3.114;2023-05-16T08:29:50;3.05;;;1.35;;
18720;SDS011;9489;50.948;3.114;2023-05-16T08:32:16;3.28;;;1.30;;
18720;SDS011;9489;50.948;3.114;2023-05-16T08:34:42;4.47;;;1.50;;
18720;SDS011;9489;50.948;3.114;2023-05-16T08:37:07;4.90;;;1.65;;
18720;SDS011;9489;50.948;3.114;2023-05-16T08:39:34;5.43;;;1.58;;
18720;SDS011;9489;50.948;3.114;2023-05-16T08:42:00;4.15;;;1.52;;
18720;SDS011;9489;50.948;3.114;2023-05-16T08:44:27;5.70;;;1.65;;
18720;SDS011;9489;50.948;3.114;2023-05-16T08:46:53;3.75;;;1.65;;
18720;SDS011;9489;50.948;3.114;2023-05-16T08:49:19;5.25;;;1.77;;
18720;SDS011;9489;50.948;3.114;2023-05-16T08:51:46;4.00;;;1.20;;
18720;SDS011;9489;50.948;3.114;2023-05-16T08:54:13;5.57;;;1.70;;
18720;SDS011;9489;50.948;3.114;2023-05-16T08:56:43;5.57;;;1.88;;
18720;SDS011;9489;50.948;3.114;2023-05-16T08:59:09;4.88;;;1.15;;
18720;SDS011;9489;50.948;3.114;2023-05-16T09:01:36;3.90;;;1.38;;
18720;SDS011;9489;50.948;3.114;2023-05-16T09:04:03;4.38;;;1.30;;
18720;SDS011;9489;50.948;3.114;2023-05-16T09:06:30;3.38;;;1.30;;
18720;SDS011;9489;50.948;3.114;2023-05-16T09:08:56;3.10;;;1.20;;
18720;SDS011;9489;50.948;3.114;2023-05-16T09:11:22;3.65;;;1.48;;
18720;SDS011;9489;50.948;3.114;2023-05-16T09:13:48;4.05;;;1.63;;
18720;SDS011;9489;50.948;3.114;2023-05-16T09:16:14;6.20;;;2.08;;
18720;SDS011;9489;50.948;3.114;2023-05-16T09:18:42;4.15;;;1.40;;
18720;SDS011;9489;50.948;3.114;2023-05-16T09:21:09;4.93;;;1.73;;
18720;SDS011;9489;50.948;3.114;2023-05-16T09:23:36;4.32;;;1.55;;
18720;SDS011;9489;50.948;3.114;2023-05-16T09:26:02;7.47;;;1.70;;
18720;SDS011;9489;50.948;3.114;2023-05-16T09:28:32;3.42;;;1.48;;
18720;SDS011;9489;50.948;3.114;2023-05-16T09:31:01;2.53;;;1.20;;
18720;SDS011;9489;50.948;3.114;2023-05-16T09:33:27;7.07;;;2.05;;
18720;SDS011;9489;50.948;3.114;2023-05-16T09:35:54;5.13;;;1.50;;
18720;SDS011;9489;50.948;3.114;2023-05-16T09:38:24;3.53;;;1.00;;
18720;SDS011;9489;50.948;3.114;2023-05-16T09:40:51;5.55;;;1.75;;
18720;SDS011;9489;50.948;3.114;2023-05-16T09:43:19;3.85;;;1.20;;
18720;SDS011;9489;50.948;3.114;2023-05-16T09:45:55;4.10;;;1.50;;
18720;SDS011;9489;50.948;3.114;2023-05-16T09:48:23;4.45;;;1.42;;
18720;SDS011;9489;50.948;3.114;2023-05-16T09:50:52;4.13;;;1.58;;
18720;SDS011;9489;50.948;3.114;2023-05-16T09:53:25;6.25;;;1.88;;
18720;SDS011;9489;50.948;3.114;2023-05-16T09:55:59;4.63;;;1.70;;
18720;SDS011;9489;50.948;3.114;2023-05-16T09:58:29;2.95;;;1.30;;
18720;SDS011;9489;50.948;3.114;2023-05-16T10:00:56;6.32;;;1.75;;
18720;SDS011;9489;50.948;3.114;2023-05-16T10:03:23;4.72;;;1.40;;
18720;SDS011;9489;50.948;3.114;2023-05-16T10:05:50;4.18;;;1.45;;
18720;SDS011;9489;50.948;3.114;2023-05-16T10:08:19;3.17;;;1.27;;
18720;SDS011;9489;50.948;3.114;2023-05-16T10:10:46;3.78;;;1.20;;
18720;SDS011;9489;50.948;3.114;2023-05-16T10:13:17;3.28;;;1.30;;
18720;SDS011;9489;50.948;3.114;2023-05-16T10:15:47;4.20;;;1.65;;
18720;SDS011;9489;50.948;3.114;2023-05-16T10:18:15;3.35;;;1.30;;
18720;SDS011;9489;50.948;3.114;2023-05-16T10:20:42;3.03;;;1.17;;
18720;SDS011;9489;50.948;3.114;2023-05-16T10:23:12;3.75;;;1.63;;
18720;SDS011;9489;50.948;3.114;2023-05-16T10:25:40;5.40;;;1.70;;
18720;SDS011;9489;50.948;3.114;2023-05-16T10:28:08;5.50;;;1.90;;
18720;SDS011;9489;50.948;3.114;2023-05-16T10:30:34;4.72;;;2.08;;
18720;SDS011;9489;50.948;3.114;2023-05-16T10:33:01;2.63;;;1.02;;
18720;SDS011;9489;50.948;3.114;2023-05-16T10:35:28;2.22;;;1.27;;
18720;SDS011;9489;50.948;3.114;2023-05-16T10:37:55;3.25;;;1.10;;
18720;SDS011;9489;50.948;3.114;2023-05-16T10:40:22;4.00;;;1.35;;
18720;SDS011;9489;50.948;3.114;2023-05-16T10:42:55;4.53;;;1.42;;
18720;SDS011;9489;50.948;3.114;2023-05-16T10:45:22;3.17;;;1.23;;
18720;SDS011;9489;50.948;3.114;2023-05-16T10:48:03;3.13;;;1.80;;
18720;SDS011;9489;50.948;3.114;2023-05-16T10:50:38;2.20;;;1.30;;
18720;SDS011;9489;50.948;3.114;2023-05-16T10:53:21;3.28;;;1.30;;
18720;SDS011;9489;50.948;3.114;2023-05-16T11:16:55;2.95;;;1.10;;
18720;SDS011;9489;50.948;3.114;2023-05-16T11:19:34;2.70;;;1.20;;
18720;SDS011;9489;50.948;3.114;2023-05-16T11:24:49;3.13;;;1.40;;
18720;SDS011;9489;50.948;3.114;2023-05-16T11:27:28;2.05;;;1.10;;
18720;SDS011;9489;50.948;3.114;2023-05-16T11:29:58;3.92;;;1.80;;
18720;SDS011;9489;50.948;3.114;2023-05-16T11:32:30;3.95;;;1.55;;
18720;SDS011;9489;50.948;3.114;2023-05-16T11:34:59;2.58;;;1.20;;
18720;SDS011;9489;50.948;3.114;2023-05-16T11:37:26;3.08;;;1.23;;
18720;SDS011;9489;50.948;3.114;2023-05-16T11:39:52;2.25;;;1.50;;
18720;SDS011;9489;50.948;3.114;2023-05-16T11:42:22;2.80;;;1.83;;
18720;SDS011;9489;50.948;3.114;2023-05-16T11:44:48;3.90;;;1.33;;
18720;SDS011;9489;50.948;3.114;2023-05-16T11:47:13;2.75;;;1.10;;
18720;SDS011;9489;50.948;3.114;2023-05-16T11:49:39;3.63;;;1.10;;
18720;SDS011;9489;50.948;3.114;2023-05-16T11:52:06;2.80;;;1.25;;
18720;SDS011;9489;50.948;3.114;2023-05-16T11:54:33;2.97;;;1.00;;
18720;SDS011;9489;50.948;3.114;2023-05-16T11:56:59;2.40;;;1.00;;
18720;SDS011;9489;50.948;3.114;2023-05-16T11:59:26;2.90;;;0.90;;
18720;SDS011;9489;50.948;3.114;2023-05-16T12:01:51;2.22;;;1.10;;
18720;SDS011;9489;50.948;3.114;2023-05-16T12:04:17;2.80;;;0.90;;
18720;SDS011;9489;50.948;3.114;2023-05-16T12:06:44;3.17;;;1.10;;
18720;SDS011;9489;50.948;3.114;2023-05-16T12:09:23;4.18;;;1.20;;
18720;SDS011;9489;50.948;3.114;2023-05-16T12:11:48;3.30;;;1.20;;
18720;SDS011;9489;50.948;3.114;2023-05-16T12:14:16;1.77;;;1.05;;
18720;SDS011;9489;50.948;3.114;2023-05-16T12:16:42;3.05;;;1.00;;
18720;SDS011;9489;50.948;3.114;2023-05-16T12:19:10;4.40;;;1.30;;
18720;SDS011;9489;50.948;3.114;2023-05-16T12:21:37;1.98;;;0.85;;
18720;SDS011;9489;50.948;3.114;2023-05-16T12:24:03;2.70;;;1.08;;
18720;SDS011;9489;50.948;3.114;2023-05-16T12:26:32;1.75;;;1.17;;
18720;SDS011;9489;50.948;3.114;2023-05-16T12:29:02;3.65;;;1.20;;
18720;SDS011;9489;50.948;3.114;2023-05-16T12:31:29;2.35;;;1.00;;
18720;SDS011;9489;50.948;3.114;2023-05-16T12:33:56;4.18;;;1.00;;
18720;SDS011;9489;50.948;3.114;2023-05-16T12:36:22;3.13;;;1.35;;
18720;SDS011;9489;50.948;3.114;2023-05-16T12:38:50;2.35;;;1.02;;
18720;SDS011;9489;50.948;3.114;2023-05-16T12:41:20;1.88;;;1.15;;
18720;SDS011;9489;50.948;3.114;2023-05-16T12:43:47;1.45;;;0.93;;
18720;SDS011;9489;50.948;3.114;2023-05-16T12:46:13;1.42;;;1.08;;
18720;SDS011;9489;50.948;3.114;2023-05-16T12:48:39;1.83;;;0.88;;
18720;SDS011;9489;50.948;3.114;2023-05-16T12:51:10;3.75;;;1.10;;
18720;SDS011;9489;50.948;3.114;2023-05-16T12:53:45;2.58;;;1.10;;
18720;SDS011;9489;50.948;3.114;2023-05-16T12:56:13;5.18;;;1.20;;
18720;SDS011;9489;50.948;3.114;2023-05-16T12:58:39;4.50;;;1.38;;
18720;SDS011;9489;50.948;3.114;2023-05-16T13:01:06;3.92;;;1.10;;
18720;SDS011;9489;50.948;3.114;2023-05-16T13:03:33;2.95;;;1.52;;
18720;SDS011;9489;50.948;3.114;2023-05-16T13:05:59;2.92;;;1.30;;
18720;SDS011;9489;50.948;3.114;2023-05-16T13:08:25;2.95;;;1.10;;
18720;SDS011;9489;50.948;3.114;2023-05-16T13:10:52;2.50;;;1.10;;
18720;SDS011;9489;50.948;3.114;2023-05-16T13:13:18;4.32;;;1.42;;
18720;SDS011;9489;50.948;3.114;2023-05-16T13:15:44;2.63;;;1.30;;
18720;SDS011;9489;50.948;3.114;2023-05-16T13:18:10;1.90;;;1.17;;
18720;SDS011;9489;50.948;3.114;2023-05-16T13:20:35;2.80;;;0.95;;
18720;SDS011;9489;50.948;3.114;2023-05-16T13:23:02;2.65;;;1.25;;
18720;SDS011;9489;50.948;3.114;2023-05-16T13:25:29;2.85;;;0.95;;
18720;SDS011;9489;50.948;3.114;2023-05-16T13:27:55;3.45;;;1.42;;
18720;SDS011;9489;50.948;3.114;2023-05-16T13:30:20;4.13;;;1.20;;
18720;SDS011;9489;50.948;3.114;2023-05-16T13:32:46;3.47;;;1.33;;
18720;SDS011;9489;50.948;3.114;2023-05-16T13:35:12;2.28;;;0.80;;
18720;SDS011;9489;50.948;3.114;2023-05-16T13:37:38;2.45;;;0.82;;
18720;SDS011;9489;50.948;3.114;2023-05-16T13:40:05;4.55;;;1.10;;
18720;SDS011;9489;50.948;3.114;2023-05-16T13:42:34;2.53;;;0.95;;
18720;SDS011;9489;50.948;3.114;2023-05-16T13:45:01;2.63;;;1.00;;
18720;SDS011;9489;50.948;3.114;2023-05-16T13:47:27;2.20;;;0.88;;
18720;SDS011;9489;50.948;3.114;2023-05-16T13:49:53;2.60;;;0.85;;
18720;SDS011;9489;50.948;3.114;2023-05-16T13:52:19;2.17;;;1.08;;
18720;SDS011;9489;50.948;3.114;2023-05-16T13:54:45;4.53;;;0.70;;
18720;SDS011;9489;50.948;3.114;2023-05-16T13:57:11;1.88;;;0.90;;
18720;SDS011;9489;50.948;3.114;2023-05-16T13:59:36;2.92;;;0.85;;
18720;SDS011;9489;50.948;3.114;2023-05-16T14:02:02;3.67;;;1.00;;
18720;SDS011;9489;50.948;3.114;2023-05-16T14:04:28;2.75;;;1.10;;
18720;SDS011;9489;50.948;3.114;2023-05-16T14:06:53;3.42;;;1.30;;
18720;SDS011;9489;50.948;3.114;2023-05-16T14:09:20;2.17;;;0.95;;
18720;SDS011;9489;50.948;3.114;2023-05-16T14:11:46;1.95;;;0.98;;
18720;SDS011;9489;50.948;3.114;2023-05-16T14:14:12;3.53;;;1.33;;
18720;SDS011;9489;50.948;3.114;2023-05-16T14:16:37;2.00;;;1.00;;
18720;SDS011;9489;50.948;3.114;2023-05-16T14:19:07;3.83;;;1.33;;
18720;SDS011;9489;50.948;3.114;2023-05-16T14:21:33;4.93;;;1.38;;
18720;SDS011;9489;50.948;3.114;2023-05-16T14:23:59;3.70;;;1.17;;
18720;SDS011;9489;50.948;3.114;2023-05-16T14:26:24;2.42;;;1.10;;
18720;SDS011;9489;50.948;3.114;2023-05-16T14:28:50;1.83;;;0.80;;
18720;SDS011;9489;50.948;3.114;2023-05-16T14:31:16;5.63;;;1.30;;
18720;SDS011;9489;50.948;3.114;2023-05-16T14:33:42;8.18;;;2.50;;
18720;SDS011;9489;50.948;3.114;2023-05-16T14:36:08;7.40;;;3.45;;
18720;SDS011;9489;50.948;3.114;2023-05-16T14:38:33;4.70;;;1.30;;
18720;SDS011;9489;50.948;3.114;2023-05-16T14:40:59;2.42;;;1.42;;
18720;SDS011;9489;50.948;3.114;2023-05-16T14:43:25;2.95;;;1.13;;
18720;SDS011;9489;50.948;3.114;2023-05-16T14:45:51;2.67;;;1.10;;
18720;SDS011;9489;50.948;3.114;2023-05-16T14:48:16;3.20;;;1.10;;
18720;SDS011;9489;50.948;3.114;2023-05-16T14:50:42;2.78;;;1.10;;
18720;SDS011;9489;50.948;3.114;2023-05-16T14:53:08;2.78;;;1.30;;
18720;SDS011;9489;50.948;3.114;2023-05-16T14:55:33;2.80;;;1.10;;
18720;SDS011;9489;50.948;3.114;2023-05-16T14:57:59;2.38;;;0.85;;
18720;SDS011;9489;50.948;3.114;2023-05-16T15:00:25;2.17;;;1.02;;
18720;SDS011;9489;50.948;3.114;2023-05-16T15:02:51;2.95;;;1.20;;
18720;SDS011;9489;50.948;3.114;2023-05-16T15:05:17;1.33;;;1.02;;
18720;SDS011;9489;50.948;3.114;2023-05-16T15:07:43;2.40;;;1.20;;
18720;SDS011;9489;50.948;3.114;2023-05-16T15:10:09;3.75;;;1.55;;
18720;SDS011;9489;50.948;3.114;2023-05-16T15:12:35;2.90;;;1.00;;
18720;SDS011;9489;50.948;3.114;2023-05-16T15:15:01;3.83;;;1.33;;
18720;SDS011;9489;50.948;3.114;2023-05-16T15:17:27;1.75;;;1.27;;
18720;SDS011;9489;50.948;3.114;2023-05-16T15:19:52;2.78;;;1.40;;
18720;SDS011;9489;50.948;3.114;2023-05-16T15:22:18;3.17;;;1.30;;
18720;SDS011;9489;50.948;3.114;2023-05-16T15:24:45;3.75;;;1.90;;
18720;SDS011;9489;50.948;3.114;2023-05-16T15:27:10;3.03;;;0.95;;
18720;SDS011;9489;50.948;3.114;2023-05-16T15:29:36;4.45;;;1.38;;
18720;SDS011;9489;50.948;3.114;2023-05-16T15:32:03;4.15;;;1.27;;
18720;SDS011;9489;50.948;3.114;2023-05-16T15:34:30;3.10;;;1.17;;